createdAt,value
2023-02-25T00:00:53.901Z,39.96
2023-02-25T00:02:03.486Z,39.32
2023-02-25T00:02:55.927Z,39.48
2023-02-25T00:03:53.879Z,39.64
2023-02-25T00:04:53.862Z,41.09
2023-02-25T00:05:53.854Z,40.44
2023-02-25T00:06:53.844Z,40.44
2023-02-25T00:07:53.865Z,40.44
2023-02-25T00:08:53.828Z,40.12
2023-02-25T00:09:53.818Z,40.77
2023-02-25T00:10:53.812Z,40.61
2023-02-25T00:11:53.805Z,43.02
2023-02-25T00:12:53.855Z,40.61
2023-02-25T00:13:53.809Z,39.96
2023-02-25T00:14:53.782Z,40.44
2023-02-25T00:15:53.786Z,40.77
2023-02-25T00:16:53.827Z,40.93
2023-02-25T00:17:53.789Z,40.93
2023-02-25T00:18:53.748Z,41.25
2023-02-25T00:19:53.747Z,40.93
2023-02-25T00:20:53.733Z,41.41
2023-02-25T00:21:53.732Z,41.09
2023-02-25T00:22:53.745Z,42.86
2023-02-25T00:23:53.825Z,41.89
2023-02-25T00:24:53.737Z,41.89
2023-02-25T00:25:53.699Z,41.41
2023-02-25T00:26:53.693Z,41.41
2023-02-25T00:27:53.717Z,41.09
2023-02-25T00:28:53.690Z,40.61
2023-02-25T00:29:53.668Z,40.44
2023-02-25T00:30:53.795Z,41.89
2023-02-25T00:31:53.787Z,41.41
2023-02-25T00:32:53.767Z,41.41
2023-02-25T00:33:53.656Z,40.93
2023-02-25T00:34:53.649Z,43.51
2023-02-25T00:35:53.625Z,40.44
2023-02-25T00:36:53.673Z,40.61
2023-02-25T00:37:55.652Z,40.93
2023-02-25T00:38:53.606Z,40.61
2023-02-25T00:39:53.604Z,41.09
2023-02-25T00:40:53.589Z,40.61
2023-02-25T00:41:53.580Z,40.12
2023-02-25T00:42:53.602Z,40.61
2023-02-25T00:43:53.561Z,40.61
2023-02-25T00:44:53.556Z,40.61
2023-02-25T00:45:53.611Z,40.61
2023-02-25T00:46:53.547Z,42.06
2023-02-25T00:47:53.569Z,41.89
2023-02-25T00:48:53.536Z,40.28
2023-02-25T00:49:53.544Z,40.61
2023-02-25T00:50:53.510Z,41.41
2023-02-25T00:51:53.503Z,40.61
2023-02-25T00:52:53.516Z,41.89
2023-02-25T00:53:53.500Z,40.61
2023-02-25T00:54:53.489Z,40.61
2023-02-25T00:55:53.460Z,41.89
2023-02-25T00:56:54.474Z,40.93
2023-02-25T00:57:53.480Z,41.41
2023-02-25T00:58:54.455Z,41.41
2023-02-25T00:59:53.448Z,40.93
2023-02-25T01:00:53.442Z,41.09
2023-02-25T01:01:53.481Z,41.57
2023-02-25T01:02:53.513Z,41.89
2023-02-25T01:03:53.416Z,41.25
2023-02-25T01:04:53.397Z,41.09
2023-02-25T01:05:53.390Z,46.08
2023-02-25T01:06:53.399Z,41.09
2023-02-25T01:07:53.405Z,40.28
2023-02-25T01:08:53.400Z,40.93
2023-02-25T01:09:53.364Z,44.96
2023-02-25T01:10:53.349Z,41.89
2023-02-25T01:11:53.357Z,41.09
2023-02-25T01:12:53.337Z,41.57
2023-02-25T01:13:53.442Z,40.93
2023-02-25T01:14:53.326Z,39.96
2023-02-25T01:15:53.327Z,41.89
2023-02-25T01:16:53.307Z,40.77
2023-02-25T01:17:53.310Z,40.12
2023-02-25T01:18:53.323Z,41.57
2023-02-25T01:19:53.288Z,42.54
2023-02-25T01:20:53.299Z,42.70
2023-02-25T01:21:53.275Z,40.93
2023-02-25T01:22:53.263Z,41.57
2023-02-25T01:23:53.288Z,41.57
2023-02-25T01:24:53.251Z,40.44
2023-02-25T01:25:53.247Z,41.09
2023-02-25T01:26:53.237Z,46.25
2023-02-25T01:27:53.222Z,40.77
2023-02-25T01:28:53.256Z,43.02
2023-02-25T01:29:53.209Z,44.15
2023-02-25T01:30:53.347Z,43.51
2023-02-25T01:31:53.383Z,40.61
2023-02-25T01:32:53.211Z,41.09
2023-02-25T01:33:53.201Z,41.41
2023-02-25T01:34:53.170Z,46.57
2023-02-25T01:35:53.173Z,43.99
2023-02-25T01:36:53.194Z,43.67
2023-02-25T01:37:53.156Z,40.93
2023-02-25T01:38:53.173Z,40.93
2023-02-25T01:39:53.131Z,40.61
2023-02-25T01:40:54.149Z,44.63
2023-02-25T01:41:53.140Z,41.73
2023-02-25T01:42:53.114Z,41.41
2023-02-25T01:43:53.129Z,44.96
2023-02-25T01:44:53.091Z,44.47
2023-02-25T01:45:53.086Z,43.83
2023-02-25T01:46:53.105Z,42.38
2023-02-25T01:47:54.079Z,42.38
2023-02-25T01:48:53.124Z,40.61
2023-02-25T01:49:53.064Z,42.86
2023-02-25T01:50:53.053Z,43.18
2023-02-25T01:51:53.044Z,41.73
2023-02-25T01:52:53.073Z,41.25
2023-02-25T01:53:53.082Z,40.44
2023-02-25T01:54:53.029Z,41.41
2023-02-25T01:55:53.023Z,40.93
2023-02-25T01:56:53.020Z,41.09
2023-02-25T01:57:53.003Z,41.09
2023-02-25T01:58:53.050Z,41.25
2023-02-25T01:59:53.012Z,41.57
2023-02-25T02:00:53.055Z,41.57
2023-02-25T02:01:52.979Z,41.41
2023-02-25T02:02:53.024Z,40.77
2023-02-25T02:03:52.981Z,39.96
2023-02-25T02:04:52.950Z,41.73
2023-02-25T02:05:52.936Z,42.54
2023-02-25T02:06:52.934Z,39.96
2023-02-25T02:07:52.936Z,40.44
2023-02-25T02:08:52.956Z,40.12
2023-02-25T02:09:52.902Z,41.09
2023-02-25T02:10:52.902Z,40.77
2023-02-25T02:11:52.896Z,43.51
2023-02-25T02:12:52.880Z,40.44
2023-02-25T02:13:52.877Z,40.12
2023-02-25T02:14:52.910Z,40.44
2023-02-25T02:15:52.884Z,46.57
2023-02-25T02:16:52.850Z,42.06
2023-02-25T02:17:52.899Z,41.89
2023-02-25T02:18:52.839Z,40.93
2023-02-25T02:19:52.852Z,42.22
2023-02-25T02:20:52.834Z,41.57
2023-02-25T02:21:52.816Z,40.93
2023-02-25T02:22:52.805Z,42.22
2023-02-25T02:23:52.801Z,41.89
2023-02-25T02:24:52.832Z,41.73
2023-02-25T02:25:52.790Z,42.38
2023-02-25T02:26:52.782Z,42.22
2023-02-25T02:27:52.780Z,42.06
2023-02-25T02:28:52.757Z,40.93
2023-02-25T02:29:52.777Z,40.28
2023-02-25T02:30:52.790Z,40.44
2023-02-25T02:31:52.849Z,39.80
2023-02-25T02:32:52.734Z,41.09
2023-02-25T02:33:52.732Z,40.77
2023-02-25T02:34:52.766Z,40.44
2023-02-25T02:35:52.717Z,40.93
2023-02-25T02:36:52.712Z,40.44
2023-02-25T02:37:52.692Z,40.77
2023-02-25T02:38:52.693Z,39.96
2023-02-25T02:39:52.711Z,40.77
2023-02-25T02:40:52.675Z,40.12
2023-02-25T02:41:52.670Z,39.96
2023-02-25T02:42:52.658Z,40.61
2023-02-25T02:43:52.692Z,41.73
2023-02-25T02:44:52.664Z,40.44
2023-02-25T02:45:52.682Z,40.44
2023-02-25T02:46:52.640Z,42.38
2023-02-25T02:47:52.617Z,40.77
2023-02-25T02:48:52.621Z,40.61
2023-02-25T02:49:52.637Z,42.38
2023-02-25T02:50:52.577Z,40.12
2023-02-25T02:51:53.604Z,39.32
2023-02-25T02:52:52.597Z,39.80
2023-02-25T02:53:52.572Z,41.57
2023-02-25T02:54:52.591Z,39.96
2023-02-25T02:55:52.568Z,40.28
2023-02-25T02:56:52.557Z,41.57
2023-02-25T02:57:52.588Z,43.83
2023-02-25T02:58:52.533Z,40.77
2023-02-25T02:59:52.564Z,40.77
2023-02-25T03:00:52.566Z,42.54
2023-02-25T03:01:52.538Z,41.09
2023-02-25T03:02:52.506Z,40.61
2023-02-25T03:03:52.548Z,39.64
2023-02-25T03:04:52.496Z,40.93
2023-02-25T03:05:52.509Z,40.77
2023-02-25T03:06:52.497Z,39.80
2023-02-25T03:07:52.482Z,39.16
2023-02-25T03:08:52.457Z,40.93
2023-02-25T03:09:52.445Z,39.64
2023-02-25T03:10:52.528Z,39.80
2023-02-25T03:11:52.447Z,39.80
2023-02-25T03:12:52.428Z,39.80
2023-02-25T03:13:52.439Z,41.89
2023-02-25T03:14:52.415Z,40.93
2023-02-25T03:15:52.453Z,40.44
2023-02-25T03:16:52.459Z,39.48
2023-02-25T03:17:52.382Z,39.64
2023-02-25T03:18:52.385Z,41.09
2023-02-25T03:19:52.384Z,44.63
2023-02-25T03:20:52.396Z,39.80
2023-02-25T03:21:52.385Z,40.28
2023-02-25T03:22:52.366Z,41.73
2023-02-25T03:23:52.352Z,40.61
2023-02-25T03:24:52.362Z,39.32
2023-02-25T03:25:52.366Z,39.96
2023-02-25T03:26:52.338Z,39.64
2023-02-25T03:27:52.326Z,39.96
2023-02-25T03:28:52.353Z,41.09
2023-02-25T03:29:52.318Z,39.32
2023-02-25T03:30:52.400Z,40.28
2023-02-25T03:31:52.387Z,40.12
2023-02-25T03:32:52.407Z,40.61
2023-02-25T03:33:52.282Z,39.16
2023-02-25T03:34:52.281Z,39.48
2023-02-25T03:35:52.306Z,40.12
2023-02-25T03:36:52.271Z,43.18
2023-02-25T03:37:52.258Z,40.93
2023-02-25T03:38:52.235Z,39.96
2023-02-25T03:39:52.245Z,39.80
2023-02-25T03:40:52.245Z,39.80
2023-02-25T03:41:52.221Z,39.64
2023-02-25T03:42:52.217Z,40.44
2023-02-25T03:43:52.202Z,39.48
2023-02-25T03:44:52.194Z,45.92
2023-02-25T03:45:52.228Z,40.44
2023-02-25T03:46:52.175Z,42.22
2023-02-25T03:47:52.177Z,41.09
2023-02-25T03:48:52.161Z,40.93
2023-02-25T03:49:52.156Z,39.32
2023-02-25T03:50:52.187Z,39.64
2023-02-25T03:51:52.149Z,40.44
2023-02-25T03:52:52.137Z,42.38
2023-02-25T03:53:52.131Z,39.96
2023-02-25T03:54:52.152Z,40.44
2023-02-25T03:55:52.137Z,38.67
2023-02-25T03:56:52.154Z,39.48
2023-02-25T03:57:52.091Z,39.64
2023-02-25T03:58:52.078Z,41.89
2023-02-25T03:59:52.084Z,40.93
2023-02-25T04:00:52.095Z,39.80
2023-02-25T04:01:52.053Z,40.44
2023-02-25T04:02:52.049Z,42.86
2023-02-25T04:03:52.047Z,39.64
2023-02-25T04:04:52.048Z,42.70
2023-02-25T04:05:52.063Z,39.96
2023-02-25T04:06:52.008Z,39.48
2023-02-25T04:07:52.015Z,47.05
2023-02-25T04:08:52.019Z,39.80
2023-02-25T04:09:51.994Z,41.25
2023-02-25T04:10:51.978Z,41.41
2023-02-25T04:11:53.006Z,40.28
2023-02-25T04:12:51.984Z,40.61
2023-02-25T04:13:51.959Z,41.57
2023-02-25T04:14:51.964Z,40.93
2023-02-25T04:15:51.996Z,45.92
2023-02-25T04:16:52.286Z,49.79
2023-02-25T04:17:51.936Z,54.62
2023-02-25T04:18:51.925Z,54.14
2023-02-25T04:19:51.919Z,57.36
2023-02-25T04:20:51.939Z,57.69
2023-02-25T04:21:52.337Z,57.69
2023-02-25T04:22:51.897Z,56.07
2023-02-25T04:23:51.901Z,57.85
2023-02-25T04:24:51.889Z,57.20
2023-02-25T04:25:51.871Z,56.40
2023-02-25T04:26:51.893Z,58.81
2023-02-25T04:27:51.870Z,58.81
2023-02-25T04:28:51.844Z,59.46
2023-02-25T04:29:51.847Z,58.65
2023-02-25T04:30:51.892Z,56.24
2023-02-25T04:31:51.938Z,58.81
2023-02-25T04:32:52.050Z,59.46
2023-02-25T04:33:51.837Z,58.33
2023-02-25T04:34:51.819Z,59.30
2023-02-25T04:35:51.803Z,56.07
2023-02-25T04:36:51.835Z,59.62
2023-02-25T04:37:51.801Z,59.14
2023-02-25T04:38:51.794Z,57.69
2023-02-25T04:39:51.830Z,59.30
2023-02-25T04:40:51.780Z,58.65
2023-02-25T04:41:51.816Z,55.91
2023-02-25T04:42:51.776Z,56.07
2023-02-25T04:43:52.749Z,59.62
2023-02-25T04:44:51.749Z,59.62
2023-02-25T04:45:51.734Z,56.88
2023-02-25T04:46:52.010Z,56.40
2023-02-25T04:47:51.716Z,59.62
2023-02-25T04:48:51.713Z,59.94
2023-02-25T04:49:51.704Z,56.56
2023-02-25T04:50:52.716Z,59.94
2023-02-25T04:51:51.715Z,56.07
2023-02-25T04:52:51.678Z,59.46
2023-02-25T04:53:51.674Z,58.65
2023-02-25T04:54:51.671Z,56.07
2023-02-25T04:55:51.669Z,59.46
2023-02-25T04:56:51.680Z,56.07
2023-02-25T04:57:51.669Z,59.14
2023-02-25T04:58:51.631Z,56.40
2023-02-25T04:59:51.623Z,58.49
2023-02-25T05:00:51.615Z,55.91
2023-02-25T05:01:51.686Z,55.59
2023-02-25T05:02:51.607Z,57.85
2023-02-25T05:03:51.601Z,56.24
2023-02-25T05:04:51.669Z,59.46
2023-02-25T05:05:51.585Z,59.46
2023-02-25T05:06:51.596Z,59.62
2023-02-25T05:07:52.568Z,56.40
2023-02-25T05:08:51.572Z,59.46
2023-02-25T05:09:51.562Z,59.94
2023-02-25T05:10:51.562Z,58.81
2023-02-25T05:11:51.566Z,59.30
2023-02-25T05:12:51.548Z,59.14
2023-02-25T05:13:51.542Z,59.62
2023-02-25T05:14:51.525Z,60.26
2023-02-25T05:15:51.595Z,58.81
2023-02-25T05:16:51.535Z,59.62
2023-02-25T05:17:51.515Z,56.24
2023-02-25T05:18:51.494Z,59.62
2023-02-25T05:19:51.484Z,59.46
2023-02-25T05:20:51.496Z,59.46
2023-02-25T05:21:51.501Z,58.17
2023-02-25T05:22:51.462Z,58.01
2023-02-25T05:23:51.458Z,57.36
2023-02-25T05:24:51.452Z,58.01
2023-02-25T05:25:51.441Z,58.17
2023-02-25T05:26:51.464Z,57.52
2023-02-25T05:27:51.484Z,58.17
2023-02-25T05:28:51.413Z,58.01
2023-02-25T05:29:51.438Z,58.49
2023-02-25T05:30:51.429Z,59.62
2023-02-25T05:31:51.580Z,59.62
2023-02-25T05:32:51.465Z,59.78
2023-02-25T05:33:51.378Z,59.62
2023-02-25T05:34:51.380Z,58.01
2023-02-25T05:35:51.385Z,60.10
2023-02-25T05:36:51.359Z,59.94
2023-02-25T05:37:51.374Z,58.33
2023-02-25T05:38:51.352Z,56.72
2023-02-25T05:39:51.338Z,59.62
2023-02-25T05:40:51.336Z,59.30
2023-02-25T05:41:51.513Z,60.10
2023-02-25T05:42:51.328Z,59.94
2023-02-25T05:43:51.311Z,59.62
2023-02-25T05:44:51.296Z,59.62
2023-02-25T05:45:51.297Z,57.20
2023-02-25T05:46:51.350Z,46.57
2023-02-25T05:47:51.306Z,44.79
2023-02-25T05:48:51.280Z,41.09
2023-02-25T05:49:51.254Z,40.44
2023-02-25T05:50:51.296Z,39.16
2023-02-25T05:51:51.237Z,43.99
2023-02-25T05:52:51.267Z,42.22
2023-02-25T05:53:51.225Z,39.48
2023-02-25T05:54:51.227Z,40.93
2023-02-25T05:55:51.216Z,44.15
2023-02-25T05:56:51.232Z,39.96
2023-02-25T05:57:51.230Z,40.44
2023-02-25T05:58:51.181Z,41.73
2023-02-25T05:59:51.184Z,40.61
2023-02-25T06:00:51.182Z,44.96
2023-02-25T06:01:51.243Z,41.57
2023-02-25T06:02:51.242Z,39.32
2023-02-25T06:03:51.148Z,39.16
2023-02-25T06:04:51.143Z,40.93
2023-02-25T06:05:51.146Z,40.44
2023-02-25T06:06:51.127Z,38.99
2023-02-25T06:07:51.139Z,41.41
2023-02-25T06:08:51.118Z,45.92
2023-02-25T06:09:51.123Z,41.25
2023-02-25T06:10:51.092Z,41.73
2023-02-25T06:11:51.100Z,41.41
2023-02-25T06:12:51.116Z,44.31
2023-02-25T06:13:51.073Z,40.44
2023-02-25T06:14:51.082Z,40.93
2023-02-25T06:15:51.060Z,40.44
2023-02-25T06:16:51.148Z,41.41
2023-02-25T06:17:51.081Z,41.89
2023-02-25T06:18:51.044Z,41.57
2023-02-25T06:19:51.030Z,40.93
2023-02-25T06:20:51.024Z,42.38
2023-02-25T06:21:51.023Z,42.22
2023-02-25T06:22:51.033Z,42.54
2023-02-25T06:23:51.009Z,42.06
2023-02-25T06:24:51.999Z,47.37
2023-02-25T06:25:50.984Z,42.54
2023-02-25T06:26:50.985Z,41.41
2023-02-25T06:27:51.010Z,49.79
2023-02-25T06:28:50.990Z,46.73
2023-02-25T06:29:50.971Z,43.99
2023-02-25T06:30:50.982Z,42.38
2023-02-25T06:31:51.050Z,44.79
2023-02-25T06:32:51.042Z,46.41
2023-02-25T06:33:51.934Z,42.70
2023-02-25T06:34:50.926Z,44.15
2023-02-25T06:35:50.913Z,47.37
2023-02-25T06:36:50.899Z,47.53
2023-02-25T06:37:50.905Z,41.73
2023-02-25T06:38:50.923Z,43.99
2023-02-25T06:39:50.880Z,43.18
2023-02-25T06:40:50.880Z,43.67
2023-02-25T06:41:50.877Z,47.05
2023-02-25T06:42:50.870Z,47.86
2023-02-25T06:43:50.891Z,45.44
2023-02-25T06:44:50.868Z,45.12
2023-02-25T06:45:50.924Z,47.05
2023-02-25T06:46:50.832Z,42.54
2023-02-25T06:47:50.832Z,50.43
2023-02-25T06:48:50.862Z,46.41
2023-02-25T06:49:50.818Z,42.22
2023-02-25T06:50:50.812Z,44.79
2023-02-25T06:51:50.795Z,43.02
2023-02-25T06:52:50.794Z,43.02
2023-02-25T06:53:50.804Z,43.83
2023-02-25T06:54:50.773Z,48.82
2023-02-25T06:55:50.781Z,52.69
2023-02-25T06:56:50.760Z,45.92
2023-02-25T06:57:51.401Z,44.15
2023-02-25T06:58:50.802Z,43.99
2023-02-25T06:59:50.729Z,43.99
2023-02-25T07:00:50.828Z,46.08
2023-02-25T07:01:50.821Z,45.12
2023-02-25T07:02:50.705Z,44.31
2023-02-25T07:03:50.758Z,43.99
2023-02-25T07:04:50.786Z,46.08
2023-02-25T07:05:50.694Z,42.70
2023-02-25T07:06:50.674Z,44.31
2023-02-25T07:07:50.808Z,46.57
2023-02-25T07:08:50.792Z,45.12
2023-02-25T07:09:50.700Z,42.22
2023-02-25T07:10:50.657Z,43.02
2023-02-25T07:11:50.827Z,49.15
2023-02-25T07:12:50.659Z,45.12
2023-02-25T07:13:50.657Z,45.28
2023-02-25T07:14:50.630Z,44.31
2023-02-25T07:15:51.967Z,42.70
2023-02-25T07:16:51.215Z,43.83
2023-02-25T07:17:50.601Z,44.63
2023-02-25T07:18:50.611Z,43.34
2023-02-25T07:19:50.595Z,45.44
2023-02-25T07:20:50.588Z,43.83
2023-02-25T07:21:50.576Z,47.05
2023-02-25T07:22:50.565Z,44.31
2023-02-25T07:23:50.590Z,48.98
2023-02-25T07:24:50.609Z,49.63
2023-02-25T07:25:50.540Z,45.28
2023-02-25T07:26:50.538Z,48.50
2023-02-25T07:27:50.535Z,43.34
2023-02-25T07:28:50.573Z,46.41
2023-02-25T07:29:50.515Z,44.96
2023-02-25T07:30:50.565Z,47.05
2023-02-25T07:31:50.665Z,45.76
2023-02-25T07:32:50.509Z,48.50
2023-02-25T07:33:50.529Z,44.96
2023-02-25T07:34:50.478Z,43.18
2023-02-25T07:35:50.469Z,43.67
2023-02-25T07:36:50.460Z,44.96
2023-02-25T07:37:50.445Z,46.25
2023-02-25T07:38:50.472Z,45.60
2023-02-25T07:39:50.440Z,43.51
2023-02-25T07:40:50.419Z,45.76
2023-02-25T07:41:50.421Z,49.95
2023-02-25T07:42:50.403Z,44.63
2023-02-25T07:43:50.434Z,48.82
2023-02-25T07:44:50.409Z,49.31
2023-02-25T07:45:50.425Z,44.96
2023-02-25T07:46:50.381Z,46.08
2023-02-25T07:47:50.384Z,46.57
2023-02-25T07:48:50.405Z,53.17
2023-02-25T07:49:50.365Z,48.02
2023-02-25T07:50:50.358Z,46.25
2023-02-25T07:51:50.344Z,49.79
2023-02-25T07:52:50.367Z,49.31
2023-02-25T07:53:50.380Z,44.31
2023-02-25T07:54:50.328Z,45.76
2023-02-25T07:55:50.342Z,45.12
2023-02-25T07:56:50.331Z,46.25
2023-02-25T07:57:50.301Z,46.08
2023-02-25T07:58:50.315Z,45.92
2023-02-25T07:59:50.291Z,47.86
2023-02-25T08:00:50.288Z,44.15
2023-02-25T08:01:50.301Z,48.50
2023-02-25T08:02:50.296Z,46.08
2023-02-25T08:03:50.305Z,45.28
2023-02-25T08:04:50.383Z,45.76
2023-02-25T08:05:50.260Z,46.89
2023-02-25T08:06:50.233Z,44.15
2023-02-25T08:07:50.223Z,44.96
2023-02-25T08:08:50.243Z,43.51
2023-02-25T08:09:50.206Z,42.54
2023-02-25T08:10:50.206Z,47.53
2023-02-25T08:11:50.203Z,46.41
2023-02-25T08:12:50.194Z,47.53
2023-02-25T08:13:50.210Z,44.96
2023-02-25T08:14:50.184Z,48.98
2023-02-25T08:15:50.247Z,48.82
2023-02-25T08:16:50.163Z,45.12
2023-02-25T08:17:50.191Z,47.86
2023-02-25T08:18:50.198Z,44.79
2023-02-25T08:19:50.157Z,44.79
2023-02-25T08:20:50.136Z,49.47
2023-02-25T08:21:50.115Z,48.82
2023-02-25T08:22:50.139Z,47.86
2023-02-25T08:23:50.135Z,49.95
2023-02-25T08:24:50.150Z,48.82
2023-02-25T08:25:50.089Z,50.11
2023-02-25T08:26:50.112Z,45.28
2023-02-25T08:27:50.077Z,43.99
2023-02-25T08:28:50.096Z,47.05
2023-02-25T08:29:50.068Z,50.92
2023-02-25T08:30:50.101Z,53.17
2023-02-25T08:31:50.295Z,56.40
2023-02-25T08:32:50.119Z,49.47
2023-02-25T08:33:50.065Z,47.21
2023-02-25T08:34:50.028Z,49.31
2023-02-25T08:35:50.022Z,48.02
2023-02-25T08:36:50.014Z,47.86
2023-02-25T08:37:50.026Z,48.66
2023-02-25T08:38:50.047Z,46.41
2023-02-25T08:39:49.987Z,47.53
2023-02-25T08:40:50.017Z,50.60
2023-02-25T08:41:49.994Z,50.76
2023-02-25T08:42:50.170Z,54.79
2023-02-25T08:43:49.999Z,52.69
2023-02-25T08:44:49.948Z,50.76
2023-02-25T08:45:49.935Z,49.31
2023-02-25T08:46:50.117Z,53.01
2023-02-25T08:47:49.924Z,51.88
2023-02-25T08:48:49.953Z,48.66
2023-02-25T08:49:49.904Z,51.40
2023-02-25T08:50:49.910Z,50.76
2023-02-25T08:51:49.918Z,51.40
2023-02-25T08:52:49.899Z,48.34
2023-02-25T08:53:49.919Z,48.98
2023-02-25T08:54:49.873Z,53.33
2023-02-25T08:55:49.864Z,53.98
2023-02-25T08:56:49.855Z,53.33
2023-02-25T08:57:49.851Z,49.15
2023-02-25T08:58:49.872Z,52.53
2023-02-25T08:59:49.834Z,53.17
2023-02-25T09:00:49.877Z,50.27
2023-02-25T09:01:49.825Z,51.88
2023-02-25T09:02:49.813Z,50.27
2023-02-25T09:03:49.795Z,51.08
2023-02-25T09:04:49.910Z,49.63
2023-02-25T09:05:49.795Z,50.27
2023-02-25T09:06:49.783Z,51.72
2023-02-25T09:07:49.760Z,48.34
2023-02-25T09:08:49.751Z,48.66
2023-02-25T09:09:49.791Z,48.66
2023-02-25T09:10:51.032Z,47.53
2023-02-25T09:11:50.732Z,49.31
2023-02-25T09:12:49.747Z,52.69
2023-02-25T09:13:49.722Z,51.56
2023-02-25T09:14:49.741Z,47.53
2023-02-25T09:15:49.717Z,48.02
2023-02-25T09:16:49.842Z,48.18
2023-02-25T09:17:49.694Z,48.82
2023-02-25T09:18:49.693Z,53.17
2023-02-25T09:19:49.697Z,48.18
2023-02-25T09:20:49.752Z,47.05
2023-02-25T09:21:49.650Z,51.08
2023-02-25T09:22:50.659Z,51.72
2023-02-25T09:23:49.646Z,48.98
2023-02-25T09:24:49.660Z,54.95
2023-02-25T09:25:49.646Z,56.40
2023-02-25T09:26:49.639Z,57.04
2023-02-25T09:27:49.626Z,58.65
2023-02-25T09:28:49.635Z,58.97
2023-02-25T09:29:49.638Z,57.52
2023-02-25T09:30:49.625Z,57.85
2023-02-25T09:31:49.838Z,58.81
2023-02-25T09:32:49.735Z,59.14
2023-02-25T09:33:49.580Z,58.17
2023-02-25T09:34:49.608Z,57.69
2023-02-25T09:35:49.556Z,58.01
2023-02-25T09:36:49.547Z,57.69
2023-02-25T09:37:49.551Z,57.04
2023-02-25T09:38:49.540Z,57.20
2023-02-25T09:39:49.558Z,57.52
2023-02-25T09:40:49.571Z,57.52
2023-02-25T09:41:49.523Z,57.52
2023-02-25T09:42:49.510Z,56.88
2023-02-25T09:43:49.495Z,58.01
2023-02-25T09:44:49.523Z,57.36
2023-02-25T09:45:49.684Z,57.69
2023-02-25T09:46:49.481Z,57.69
2023-02-25T09:47:49.526Z,57.69
2023-02-25T09:48:49.479Z,56.88
2023-02-25T09:49:49.485Z,57.20
2023-02-25T09:50:49.454Z,57.52
2023-02-25T09:51:49.442Z,57.04
2023-02-25T09:52:49.443Z,57.36
2023-02-25T09:53:49.534Z,57.52
2023-02-25T09:54:49.468Z,57.04
2023-02-25T09:55:49.424Z,57.36
2023-02-25T09:56:49.410Z,58.17
2023-02-25T09:57:49.431Z,56.88
2023-02-25T09:58:49.380Z,57.36
2023-02-25T09:59:50.452Z,57.69
2023-02-25T10:00:49.383Z,57.69
2023-02-25T10:01:49.407Z,57.69
2023-02-25T10:02:49.486Z,57.36
2023-02-25T10:03:49.357Z,57.85
2023-02-25T10:04:49.383Z,57.36
2023-02-25T10:05:49.343Z,58.01
2023-02-25T10:06:49.343Z,57.85
2023-02-25T10:07:49.324Z,57.04
2023-02-25T10:08:49.320Z,58.01
2023-02-25T10:09:49.338Z,58.65
2023-02-25T10:10:49.295Z,58.17
2023-02-25T10:11:49.286Z,57.04
2023-02-25T10:12:49.303Z,58.97
2023-02-25T10:13:49.276Z,58.33
2023-02-25T10:14:49.302Z,58.97
2023-02-25T10:15:52.785Z,58.17
2023-02-25T10:16:50.285Z,59.78
2023-02-25T10:17:49.237Z,58.49
2023-02-25T10:18:49.243Z,59.46
2023-02-25T10:19:49.254Z,59.62
2023-02-25T10:20:49.224Z,58.33
2023-02-25T10:21:49.249Z,58.49
2023-02-25T10:22:49.203Z,59.14
2023-02-25T10:23:49.205Z,58.65
2023-02-25T10:24:49.246Z,58.33
2023-02-25T10:25:49.178Z,58.17
2023-02-25T10:26:49.173Z,58.33
2023-02-25T10:27:49.172Z,57.52
2023-02-25T10:28:49.159Z,57.69
2023-02-25T10:29:49.196Z,57.69
2023-02-25T10:30:49.207Z,57.85
2023-02-25T10:31:49.251Z,58.65
2023-02-25T10:32:49.242Z,58.33
2023-02-25T10:33:49.123Z,58.17
2023-02-25T10:34:49.153Z,58.81
2023-02-25T10:35:49.103Z,57.36
2023-02-25T10:36:49.092Z,59.30
2023-02-25T10:37:49.095Z,58.17
2023-02-25T10:38:49.075Z,58.65
2023-02-25T10:39:49.077Z,58.49
2023-02-25T10:40:49.117Z,59.30
2023-02-25T10:41:49.108Z,57.69
2023-02-25T10:42:50.077Z,58.01
2023-02-25T10:43:49.079Z,58.01
2023-02-25T10:44:49.092Z,56.24
2023-02-25T10:45:49.090Z,58.33
2023-02-25T10:46:49.020Z,59.62
2023-02-25T10:47:49.020Z,57.20
2023-02-25T10:48:49.008Z,52.05
2023-02-25T10:49:48.992Z,51.72
2023-02-25T10:50:49.129Z,51.24
2023-02-25T10:51:48.986Z,50.11
2023-02-25T10:52:48.974Z,53.50
2023-02-25T10:53:48.967Z,51.40
2023-02-25T10:54:49.014Z,55.11
2023-02-25T10:55:48.978Z,49.79
2023-02-25T10:56:48.935Z,51.88
2023-02-25T10:57:48.937Z,48.98
2023-02-25T10:58:48.924Z,49.31
2023-02-25T10:59:48.915Z,52.85
2023-02-25T11:00:48.938Z,55.43
2023-02-25T11:01:48.979Z,51.08
2023-02-25T11:02:48.927Z,51.56
2023-02-25T11:03:48.899Z,49.31
2023-02-25T11:04:48.882Z,51.40
2023-02-25T11:05:48.891Z,46.25
2023-02-25T11:06:48.869Z,50.60
2023-02-25T11:07:48.878Z,52.05
2023-02-25T11:08:48.856Z,51.88
2023-02-25T11:09:48.868Z,53.98
2023-02-25T11:10:48.863Z,55.43
2023-02-25T11:11:48.828Z,54.62
2023-02-25T11:12:48.823Z,51.08
2023-02-25T11:13:48.806Z,51.56
2023-02-25T11:14:49.573Z,53.98
2023-02-25T11:15:48.944Z,52.37
2023-02-25T11:16:48.796Z,49.63
2023-02-25T11:17:48.793Z,51.08
2023-02-25T11:18:48.779Z,54.46
2023-02-25T11:19:48.798Z,52.53
2023-02-25T11:20:48.789Z,49.79
2023-02-25T11:21:49.759Z,50.60
2023-02-25T11:22:48.758Z,55.43
2023-02-25T11:23:48.743Z,53.82
2023-02-25T11:24:48.735Z,51.08
2023-02-25T11:25:48.782Z,52.21
2023-02-25T11:26:48.758Z,52.69
2023-02-25T11:27:48.704Z,51.40
2023-02-25T11:28:48.716Z,55.75
2023-02-25T11:29:48.703Z,55.43
2023-02-25T11:30:48.805Z,52.85
2023-02-25T11:31:49.093Z,53.98
2023-02-25T11:32:48.729Z,53.17
2023-02-25T11:33:48.663Z,53.66
2023-02-25T11:34:48.683Z,52.21
2023-02-25T11:35:48.644Z,54.62
2023-02-25T11:36:50.877Z,55.11
2023-02-25T11:37:48.630Z,48.18
2023-02-25T11:38:48.646Z,55.59
2023-02-25T11:39:48.648Z,53.66
2023-02-25T11:40:48.611Z,54.30
2023-02-25T11:41:48.636Z,52.05
2023-02-25T11:42:48.602Z,53.66
2023-02-25T11:43:48.602Z,51.88
2023-02-25T11:44:48.591Z,54.46
2023-02-25T11:45:48.579Z,55.91
2023-02-25T11:46:48.648Z,56.07
2023-02-25T11:47:48.560Z,54.95
2023-02-25T11:48:48.564Z,55.75
2023-02-25T11:49:48.548Z,54.79
2023-02-25T11:50:48.537Z,56.07
2023-02-25T11:51:48.573Z,53.82
2023-02-25T11:52:48.523Z,53.66
2023-02-25T11:53:48.576Z,53.66
2023-02-25T11:54:48.511Z,53.33
2023-02-25T11:55:48.503Z,55.27
2023-02-25T11:56:48.600Z,53.98
2023-02-25T11:57:48.499Z,51.24
2023-02-25T11:58:48.492Z,54.79
2023-02-25T11:59:48.476Z,53.98
2023-02-25T12:00:48.477Z,52.05
2023-02-25T12:01:48.485Z,51.40
2023-02-25T12:02:48.515Z,55.27
2023-02-25T12:03:48.438Z,54.14
2023-02-25T12:04:48.436Z,49.79
2023-02-25T12:05:48.527Z,51.88
2023-02-25T12:06:48.445Z,53.98
2023-02-25T12:08:05.174Z,52.21
2023-02-25T12:08:50.396Z,48.50
2023-02-25T12:09:49.398Z,50.92
2023-02-25T12:10:48.388Z,53.01
2023-02-25T12:11:48.400Z,49.31
2023-02-25T12:12:48.381Z,50.27
2023-02-25T12:13:48.388Z,50.76
2023-02-25T12:14:48.361Z,53.17
2023-02-25T12:15:48.452Z,46.08
2023-02-25T12:16:48.370Z,46.73
2023-02-25T12:17:48.345Z,51.40
2023-02-25T12:18:48.331Z,51.56
2023-02-25T12:19:48.329Z,52.37
2023-02-25T12:20:48.329Z,55.27
2023-02-25T12:21:48.333Z,55.43
2023-02-25T12:22:48.321Z,55.11
2023-02-25T12:23:48.312Z,53.98
2023-02-25T12:24:48.285Z,47.86
2023-02-25T12:25:48.282Z,56.24
2023-02-25T12:26:48.338Z,55.43
2023-02-25T12:27:48.263Z,52.85
2023-02-25T12:28:49.803Z,53.50
2023-02-25T12:29:48.259Z,52.69
2023-02-25T12:30:48.242Z,50.92
2023-02-25T12:31:48.352Z,52.05
2023-02-25T12:32:48.223Z,55.43
2023-02-25T12:33:48.254Z,55.75
2023-02-25T12:34:48.211Z,55.27
2023-02-25T12:35:48.222Z,55.43
2023-02-25T12:36:48.201Z,58.33
2023-02-25T12:37:48.223Z,57.04
2023-02-25T12:38:48.222Z,51.56
2023-02-25T12:39:48.177Z,52.21
2023-02-25T12:40:48.172Z,57.20
2023-02-25T12:41:48.189Z,54.95
2023-02-25T12:42:48.194Z,52.85
2023-02-25T12:43:48.151Z,55.91
2023-02-25T12:44:48.165Z,55.59
2023-02-25T12:45:48.140Z,57.36
2023-02-25T12:46:48.153Z,53.33
2023-02-25T12:47:48.137Z,55.27
2023-02-25T12:48:48.106Z,57.52
2023-02-25T12:49:48.100Z,55.59
2023-02-25T12:50:48.081Z,53.17
2023-02-25T12:51:48.091Z,51.56
2023-02-25T12:52:48.094Z,53.33